createdAt,value
2016-02-29T00:00:03.418Z,0
2016-02-29T00:01:03.451Z,0
2016-02-29T00:02:03.423Z,0
2016-02-29T00:03:03.285Z,0
2016-02-29T00:04:03.412Z,0
2016-02-29T00:05:03.415Z,0
2016-02-29T00:06:03.840Z,0
2016-02-29T00:07:03.389Z,0
2016-02-29T00:08:03.423Z,0
2016-02-29T00:09:03.411Z,0
2016-02-29T00:10:03.398Z,0
2016-02-29T00:11:03.401Z,0
2016-02-29T00:12:03.419Z,0
2016-02-29T00:13:03.390Z,0
2016-02-29T00:14:03.409Z,0
2016-02-29T00:15:03.411Z,0
2016-02-29T00:16:03.383Z,0
2016-02-29T00:17:03.370Z,0
2016-02-29T00:18:03.420Z,0
2016-02-29T00:19:03.375Z,0
2016-02-29T00:20:03.441Z,0
2016-02-29T00:21:03.396Z,0
2016-02-29T00:22:03.399Z,0
2016-02-29T00:23:03.386Z,0
2016-02-29T00:24:03.357Z,0
2016-02-29T00:25:03.360Z,0
2016-02-29T00:26:03.362Z,0
2016-02-29T00:27:03.350Z,0
2016-02-29T00:28:03.368Z,0
2016-02-29T00:29:03.371Z,0
2016-02-29T00:30:03.363Z,0
2016-02-29T00:31:03.365Z,0
2016-02-29T00:32:03.337Z,0
2016-02-29T00:33:03.370Z,0
2016-02-29T00:34:03.342Z,0
2016-02-29T00:35:03.361Z,0
2016-02-29T00:36:03.331Z,0
2016-02-29T00:37:03.350Z,0
2016-02-29T00:38:03.322Z,0
2016-02-29T00:39:03.324Z,0
2016-02-29T00:40:03.358Z,0
2016-02-29T00:41:03.330Z,0
2016-02-29T00:42:03.333Z,0
2016-02-29T00:43:03.319Z,0
2016-02-29T00:44:03.338Z,0
2016-02-29T00:45:03.310Z,0
2016-02-29T00:46:03.327Z,0
2016-02-29T00:47:03.315Z,0
2016-02-29T00:48:03.318Z,0
2016-02-29T00:49:03.320Z,0
2016-02-29T00:50:03.307Z,0
2016-02-29T00:51:03.294Z,0
2016-02-29T00:52:03.312Z,0
2016-02-29T00:53:03.315Z,0
2016-02-29T00:54:03.302Z,0
2016-02-29T00:55:03.289Z,0
2016-02-29T00:56:03.323Z,0
2016-02-29T00:57:03.295Z,0
2016-02-29T00:58:03.282Z,0
2016-02-29T00:59:03.284Z,0
2016-02-29T01:00:03.287Z,0
2016-02-29T01:01:03.289Z,0
2016-02-29T01:02:03.276Z,0
2016-02-29T01:03:03.279Z,0
2016-02-29T01:04:03.298Z,0
2016-02-29T01:05:03.284Z,0
2016-02-29T01:06:03.287Z,0
2016-02-29T01:07:03.306Z,0
2016-02-29T01:08:03.261Z,0
2016-02-29T01:09:03.264Z,0
2016-02-29T01:10:03.251Z,0
2016-02-29T01:11:03.238Z,0
2016-02-29T01:12:03.257Z,0
2016-02-29T01:13:03.260Z,0
2016-02-29T01:14:03.247Z,0
2016-02-29T01:15:03.249Z,0
2016-02-29T01:16:03.236Z,0
2016-02-29T01:17:03.083Z,0
2016-02-29T01:18:03.227Z,0
2016-02-29T01:19:03.229Z,0
2016-02-29T01:20:03.246Z,0
2016-02-29T01:21:03.235Z,0
2016-02-29T01:22:03.221Z,0
2016-02-29T01:23:03.224Z,0
2016-02-29T01:24:03.227Z,0
2016-02-29T01:25:03.213Z,0
2016-02-29T01:26:03.216Z,0
2016-02-29T01:27:03.219Z,0
2016-02-29T01:28:03.222Z,0
2016-02-29T01:29:03.255Z,0
2016-02-29T01:30:03.211Z,0
2016-02-29T01:31:03.198Z,0
2016-02-29T01:32:03.201Z,0
2016-02-29T01:33:03.031Z,0
2016-02-29T01:34:03.192Z,0
2016-02-29T01:35:03.194Z,0
2016-02-29T01:36:03.181Z,0
2016-02-29T01:37:03.215Z,0
2016-02-29T01:38:03.202Z,0
2016-02-29T01:39:03.172Z,0
2016-02-29T01:40:03.191Z,0
2016-02-29T01:41:03.163Z,0
2016-02-29T01:42:03.166Z,0
2016-02-29T01:43:03.183Z,0
2016-02-29T01:44:03.171Z,0
2016-02-29T01:45:02.502Z,0
2016-02-29T01:46:03.145Z,0
2016-02-29T01:47:03.147Z,0
2016-02-29T01:48:03.166Z,0
2016-02-29T01:49:03.185Z,0
2016-02-29T01:50:03.155Z,0
2016-02-29T01:51:03.158Z,0
2016-02-29T01:52:03.161Z,0
2016-02-29T01:53:03.180Z,0
2016-02-29T01:54:03.152Z,0
2016-02-29T01:55:03.123Z,0
2016-02-29T01:56:03.204Z,0
2016-02-29T01:57:03.113Z,0
2016-02-29T01:58:03.146Z,0
2016-02-29T01:59:03.118Z,0
2016-02-29T02:00:03.165Z,0
2016-02-29T02:01:03.090Z,0
2016-02-29T02:02:03.125Z,0
2016-02-29T02:03:03.050Z,0
2016-02-29T02:04:03.038Z,0
2016-02-29T02:05:03.042Z,0
2016-02-29T02:06:03.008Z,0
2016-02-29T02:07:03.022Z,0
2016-02-29T02:08:03.003Z,0
2016-02-29T02:09:03.016Z,0
2016-02-29T02:10:02.984Z,0
2016-02-29T02:11:02.982Z,0
2016-02-29T02:12:02.983Z,0
2016-02-29T02:13:03.000Z,0
2016-02-29T02:14:02.969Z,0
2016-02-29T02:15:03.017Z,0
2016-02-29T02:16:02.971Z,0
2016-02-29T02:17:02.926Z,0
2016-02-29T02:18:02.959Z,0
2016-02-29T02:19:02.961Z,0
2016-02-29T02:20:02.947Z,0
2016-02-29T02:21:02.934Z,0
2016-02-29T02:22:02.936Z,0
2016-02-29T02:23:02.924Z,0
2016-02-29T02:24:02.911Z,0
2016-02-29T02:25:02.914Z,0
2016-02-29T02:26:02.901Z,0
2016-02-29T02:27:02.934Z,0
2016-02-29T02:28:02.922Z,0
2016-02-29T02:29:02.908Z,0
2016-02-29T02:30:02.911Z,0
2016-02-29T02:31:02.929Z,0
2016-02-29T02:32:02.917Z,0
2016-02-29T02:33:02.889Z,0
2016-02-29T02:34:02.922Z,0
2016-02-29T02:35:02.909Z,0
2016-02-29T02:36:02.927Z,0
2016-02-29T02:37:02.899Z,0
2016-02-29T02:38:02.933Z,0
2016-02-29T02:39:02.873Z,0
2016-02-29T02:40:02.876Z,0
2016-02-29T02:41:02.910Z,0
2016-02-29T02:42:02.881Z,0
2016-02-29T02:43:02.884Z,0
2016-02-29T02:44:02.918Z,0
2016-02-29T02:45:02.905Z,0
2016-02-29T02:46:02.860Z,0
2016-02-29T02:47:02.895Z,0
2016-02-29T02:48:02.866Z,0
2016-02-29T02:49:02.868Z,0
2016-02-29T02:50:02.839Z,0
2016-02-29T02:51:02.827Z,0
2016-02-29T02:52:02.876Z,0
2016-02-29T02:53:02.957Z,0
2016-02-29T02:54:02.835Z,0
2016-02-29T02:55:02.806Z,0
2016-02-29T02:56:02.872Z,0
2016-02-29T02:57:02.812Z,0
2016-02-29T02:58:02.814Z,0
2016-02-29T02:59:02.865Z,0
2016-02-29T03:00:02.805Z,0
2016-02-29T03:01:02.854Z,0
2016-02-29T03:02:02.810Z,0
2016-02-29T03:03:02.828Z,0
2016-02-29T03:04:02.816Z,0
2016-02-29T03:05:02.772Z,0
2016-02-29T03:06:02.821Z,0
2016-02-29T03:07:02.777Z,0
2016-02-29T03:08:02.795Z,0
2016-02-29T03:09:02.813Z,0
2016-02-29T03:10:02.769Z,0
2016-02-29T03:11:02.772Z,0
2016-02-29T03:12:02.774Z,0
2016-02-29T03:13:02.777Z,0
2016-02-29T03:14:02.764Z,0
2016-02-29T03:15:02.751Z,0
2016-02-29T03:16:02.738Z,0
2016-02-29T03:17:02.757Z,0
2016-02-29T03:18:02.729Z,0
2016-02-29T03:19:02.731Z,0
2016-02-29T03:20:02.734Z,0
2016-02-29T03:21:02.720Z,0
2016-02-29T03:22:02.754Z,0
2016-02-29T03:23:02.694Z,0
2016-02-29T03:24:02.557Z,0
2016-02-29T03:25:02.715Z,0
2016-02-29T03:26:02.703Z,0
2016-02-29T03:27:02.752Z,0
2016-02-29T03:28:02.755Z,0
2016-02-29T03:29:02.679Z,0
2016-02-29T03:30:02.667Z,0
2016-02-29T03:31:02.670Z,0
2016-02-29T03:32:02.687Z,0
2016-02-29T03:33:02.675Z,0
2016-02-29T03:34:02.661Z,0
2016-02-29T03:35:02.665Z,0
2016-02-29T03:36:02.652Z,0
2016-02-29T03:37:02.686Z,0
2016-02-29T03:38:02.641Z,0
2016-02-29T03:39:02.628Z,0
2016-02-29T03:40:02.646Z,0
2016-02-29T03:41:02.649Z,0
2016-02-29T03:42:02.651Z,0
2016-02-29T03:43:02.623Z,0
2016-02-29T03:44:02.627Z,0
2016-02-29T03:45:02.629Z,0
2016-02-29T03:46:02.615Z,0
2016-02-29T03:47:02.602Z,0
2016-02-29T03:48:02.621Z,0
2016-02-29T03:49:02.608Z,0
2016-02-29T03:50:02.611Z,0
2016-02-29T03:51:02.598Z,0
2016-02-29T03:52:02.601Z,0
2016-02-29T03:53:02.603Z,0
2016-02-29T03:54:02.435Z,0
2016-02-29T03:55:02.593Z,0
2016-02-29T03:56:02.596Z,0
2016-02-29T03:57:02.473Z,0
2016-02-29T03:58:02.554Z,0
2016-02-29T03:59:02.557Z,0
2016-02-29T04:00:02.576Z,0
2016-02-29T04:01:02.547Z,0
2016-02-29T04:02:02.550Z,0
2016-02-29T04:03:02.553Z,0
2016-02-29T04:04:02.540Z,0
2016-02-29T04:05:02.542Z,0
2016-02-29T04:06:02.529Z,0
2016-02-29T04:07:02.548Z,0
2016-02-29T04:08:02.534Z,0
2016-02-29T04:09:02.505Z,0
2016-02-29T04:10:02.524Z,0
2016-02-29T04:11:02.527Z,0
2016-02-29T04:12:02.560Z,0
2016-02-29T04:13:02.719Z,0
2016-02-29T04:14:02.504Z,0
2016-02-29T04:15:02.491Z,0
2016-02-29T04:16:02.509Z,0
2016-02-29T04:17:02.512Z,0
2016-02-29T04:18:02.482Z,0
2016-02-29T04:19:02.486Z,0
2016-02-29T04:20:02.473Z,0
2016-02-29T04:21:02.476Z,0
2016-02-29T04:22:02.479Z,0
2016-02-29T04:23:02.481Z,0
2016-02-29T04:24:02.484Z,0
2016-02-29T04:25:02.454Z,0
2016-02-29T04:26:02.457Z,0
2016-02-29T04:27:02.460Z,0
2016-02-29T04:28:02.433Z,0
2016-02-29T04:29:02.436Z,0
2016-02-29T04:30:02.438Z,0
2016-02-29T04:31:02.441Z,0
2016-02-29T04:32:02.428Z,0
2016-02-29T04:33:02.274Z,0
2016-02-29T04:34:02.433Z,0
2016-02-29T04:35:02.420Z,0
2016-02-29T04:36:02.424Z,0
2016-02-29T04:37:02.395Z,0
2016-02-29T04:38:02.398Z,0
2016-02-29T04:39:02.400Z,0
2016-02-29T04:40:02.418Z,0
2016-02-29T04:41:02.374Z,0
2016-02-29T04:42:02.392Z,0
2016-02-29T04:43:02.379Z,0
2016-02-29T04:44:02.367Z,0
2016-02-29T04:45:02.369Z,0
2016-02-29T04:46:02.387Z,0
2016-02-29T04:47:02.390Z,0
2016-02-29T04:48:02.361Z,0
2016-02-29T04:49:02.349Z,0
2016-02-29T04:50:02.336Z,0
2016-02-29T04:51:02.339Z,0
2016-02-29T04:52:02.341Z,0
2016-02-29T04:53:02.344Z,0
2016-02-29T04:54:02.331Z,0
2016-02-29T04:55:02.349Z,0
2016-02-29T04:56:02.367Z,0
2016-02-29T04:57:02.308Z,0
2016-02-29T04:58:02.311Z,0
2016-02-29T04:59:02.313Z,0
2016-02-29T05:00:02.316Z,0
2016-02-29T05:01:02.287Z,0
2016-02-29T05:02:02.291Z,0
2016-02-29T05:03:02.277Z,0
2016-02-29T05:04:02.280Z,0
2016-02-29T05:05:02.282Z,0
2016-02-29T05:06:02.288Z,0
2016-02-29T05:07:02.260Z,0
2016-02-29T05:08:02.449Z,0
2016-02-29T05:09:02.265Z,0
2016-02-29T05:10:02.268Z,0
2016-02-29T05:11:02.254Z,0
2016-02-29T05:12:02.257Z,0
2016-02-29T05:13:02.244Z,0
2016-02-29T05:14:02.231Z,0
2016-02-29T05:15:02.219Z,0
2016-02-29T05:16:02.221Z,0
2016-02-29T05:17:02.224Z,0
2016-02-29T05:18:02.211Z,0
2016-02-29T05:19:02.214Z,0
2016-02-29T05:20:02.200Z,0
2016-02-29T05:21:02.219Z,0
2016-02-29T05:22:02.190Z,0
2016-02-29T05:23:02.192Z,0
2016-02-29T05:24:02.039Z,0
2016-02-29T05:25:02.198Z,0
2016-02-29T05:26:02.185Z,0
2016-02-29T05:27:02.188Z,0
2016-02-29T05:28:02.191Z,0
2016-02-29T05:29:02.178Z,0
2016-02-29T05:30:02.180Z,0
2016-02-29T05:31:02.183Z,0
2016-02-29T05:32:02.388Z,0
2016-02-29T05:33:02.157Z,0
2016-02-29T05:34:02.192Z,0
2016-02-29T05:35:02.147Z,0
2016-02-29T05:36:02.135Z,0
2016-02-29T05:37:02.137Z,0
2016-02-29T05:38:02.108Z,0
2016-02-29T05:39:02.127Z,0
2016-02-29T05:40:02.130Z,0
2016-02-29T05:41:02.101Z,0
2016-02-29T05:42:02.119Z,0
2016-02-29T05:43:02.090Z,0
2016-02-29T05:44:02.094Z,0
2016-02-29T05:45:02.095Z,0
2016-02-29T05:46:02.084Z,0
2016-02-29T05:47:02.102Z,0
2016-02-29T05:48:02.042Z,0
2016-02-29T05:49:02.045Z,0
2016-02-29T05:50:02.048Z,0
2016-02-29T05:51:02.128Z,0
2016-02-29T05:52:16.399Z,0
2016-02-29T05:53:02.024Z,0
2016-02-29T05:54:02.026Z,0
2016-02-29T05:55:02.014Z,0
2016-02-29T05:56:02.094Z,0
2016-02-29T05:57:02.019Z,0
2016-02-29T05:58:01.983Z,0
2016-02-29T05:59:02.035Z,0
2016-02-29T06:00:03.357Z,0
2016-02-29T06:01:16.131Z,0
2016-02-29T06:02:02.397Z,0
2016-02-29T06:03:02.009Z,0
2016-02-29T06:04:01.825Z,0
2016-02-29T06:05:01.968Z,0
2016-02-29T06:06:01.972Z,0
2016-02-29T06:07:01.958Z,0
2016-02-29T06:08:01.945Z,0
2016-02-29T06:09:01.947Z,0
2016-02-29T06:10:01.950Z,0
2016-02-29T06:11:01.953Z,0
2016-02-29T06:12:01.956Z,5
2016-02-29T06:13:01.943Z,0
2016-02-29T06:14:01.914Z,0
2016-02-29T06:15:01.948Z,0
2016-02-29T06:16:01.905Z,5
2016-02-29T06:17:01.922Z,5
2016-02-29T06:18:01.886Z,5
2016-02-29T06:19:01.764Z,5
2016-02-29T06:20:01.876Z,5
2016-02-29T06:21:01.754Z,5
2016-02-29T06:22:01.896Z,5
2016-02-29T06:23:01.899Z,5
2016-02-29T06:24:01.887Z,5
2016-02-29T06:25:01.874Z,5
2016-02-29T06:26:01.892Z,5
2016-02-29T06:27:01.895Z,5
2016-02-29T06:28:01.865Z,5
2016-02-29T06:29:01.837Z,5
2016-02-29T06:30:01.871Z,5
2016-02-29T06:31:01.937Z,5
2016-02-29T06:32:01.861Z,5
2016-02-29T06:33:01.239Z,5
2016-02-29T06:34:01.819Z,5
2016-02-29T06:35:01.838Z,5
2016-02-29T06:36:01.809Z,5
2016-02-29T06:37:01.812Z,5
2016-02-29T06:38:01.815Z,5
2016-02-29T06:39:01.833Z,10
2016-02-29T06:40:01.789Z,10
2016-02-29T06:41:01.791Z,10
2016-02-29T06:42:01.903Z,10
2016-02-29T06:43:01.828Z,10
2016-02-29T06:44:01.831Z,10
2016-02-29T06:45:01.786Z,10
2016-02-29T06:46:01.821Z,10
2016-02-29T06:47:01.776Z,10
2016-02-29T06:48:01.795Z,10
2016-02-29T06:49:01.766Z,10
2016-02-29T06:50:01.769Z,10
2016-02-29T06:51:01.740Z,10
2016-02-29T06:52:01.790Z,10
2016-02-29T06:53:01.762Z,10
2016-02-29T06:54:01.764Z,10
2016-02-29T06:55:01.735Z,10
2016-02-29T06:56:01.785Z,10
2016-02-29T06:57:01.710Z,15
2016-02-29T06:58:01.681Z,15
2016-02-29T06:59:01.684Z,15
2016-02-29T07:00:01.733Z,15
2016-02-29T07:01:01.690Z,15
2016-02-29T07:02:01.661Z,15
2016-02-29T07:03:01.679Z,15
2016-02-29T07:04:01.697Z,15
2016-02-29T07:05:01.669Z,15
2016-02-29T07:06:01.875Z,15
2016-02-29T07:07:01.642Z,15
2016-02-29T07:08:01.661Z,15
2016-02-29T07:09:01.633Z,15
2016-02-29T07:10:01.635Z,15
2016-02-29T07:11:01.638Z,20
2016-02-29T07:12:01.625Z,15
2016-02-29T07:13:01.627Z,20
2016-02-29T07:14:01.614Z,15
2016-02-29T07:15:01.617Z,15
2016-02-29T07:16:01.620Z,15
2016-02-29T07:17:01.482Z,20
2016-02-29T07:18:01.579Z,20
2016-02-29T07:19:01.582Z,20
2016-02-29T07:20:01.600Z,20
2016-02-29T07:21:01.602Z,20
2016-02-29T07:22:01.574Z,20
2016-02-29T07:23:01.576Z,20
2016-02-29T07:24:01.595Z,20
2016-02-29T07:25:01.566Z,20
2016-02-29T07:26:01.600Z,20
2016-02-29T07:27:01.541Z,20
2016-02-29T07:28:01.559Z,20
2016-02-29T07:29:01.546Z,20
2016-02-29T07:30:01.564Z,25
2016-02-29T07:31:01.551Z,25
2016-02-29T07:32:01.523Z,25
2016-02-29T07:33:01.525Z,20
2016-02-29T07:34:01.528Z,25
2016-02-29T07:35:01.515Z,25
2016-02-29T07:36:01.517Z,20
2016-02-29T07:37:01.489Z,25
2016-02-29T07:38:01.508Z,20
2016-02-29T07:39:01.494Z,20
2016-02-29T07:40:01.498Z,25
2016-02-29T07:41:01.500Z,20
2016-02-29T07:42:01.519Z,20
2016-02-29T07:43:01.489Z,25
2016-02-29T07:44:01.492Z,25
2016-02-29T07:45:01.480Z,25
2016-02-29T07:46:01.467Z,25
2016-02-29T07:47:01.453Z,30
2016-02-29T07:48:01.456Z,25
2016-02-29T07:49:01.459Z,25
2016-02-29T07:50:01.446Z,30
2016-02-29T07:51:02.418Z,30
2016-02-29T07:52:01.466Z,30
2016-02-29T07:53:01.391Z,30
2016-02-29T07:54:01.426Z,35
2016-02-29T07:55:01.491Z,35
2016-02-29T07:56:01.431Z,35
2016-02-29T07:57:01.434Z,35
2016-02-29T07:58:01.421Z,40
2016-02-29T07:59:01.377Z,35
2016-02-29T08:00:01.504Z,35
